createdAt,value
2022-11-02T11:20:05.912Z,20.62
2022-11-02T11:22:49.747Z,20.33
2022-11-02T11:25:36.973Z,20.46
2022-11-02T11:28:29.907Z,20.62
2022-11-02T11:31:19.858Z,20.56
2022-11-02T11:34:03.825Z,20.74
2022-11-02T11:36:37.174Z,20.67
2022-11-02T11:39:11.609Z,21.04
2022-11-02T11:41:42.390Z,21.13
2022-11-02T11:44:23.126Z,20.89
2022-11-02T11:46:58.116Z,21.40
2022-11-02T11:52:35.951Z,21.42
2022-11-02T11:55:29.432Z,21.35
2022-11-02T11:58:45.380Z,21.46
2022-11-02T12:01:33.277Z,21.65
2022-11-02T12:04:11.307Z,21.77
2022-11-02T12:06:51.982Z,21.78
2022-11-02T12:09:30.426Z,22.05
2022-11-02T12:12:31.926Z,22.03
2022-11-02T12:15:18.915Z,22.92
2022-11-02T12:18:23.450Z,25.61
2022-11-02T12:21:08.492Z,27.00
2022-11-02T12:23:54.585Z,25.55
2022-11-02T12:26:39.601Z,23.91
2022-11-02T12:29:45.508Z,22.59
2022-11-02T12:32:28.668Z,22.44
2022-11-02T12:35:27.943Z,22.26
2022-11-02T12:38:18.775Z,22.27
2022-11-02T12:41:27.300Z,22.28
2022-11-02T12:44:12.487Z,22.47
2022-11-02T12:47:17.749Z,22.76
2022-11-02T12:50:02.650Z,23.17
2022-11-02T12:52:50.305Z,22.99
2022-11-02T12:55:37.274Z,22.97
2022-11-02T12:58:33.354Z,23.61
2022-11-02T13:01:14.143Z,23.79
2022-11-02T13:04:13.808Z,24.42
2022-11-02T13:06:52.368Z,25.29
2022-11-02T13:09:50.382Z,23.04
2022-11-02T13:12:26.090Z,23.29
2022-11-02T13:18:10.655Z,25.51
2022-11-02T13:20:50.930Z,24.11
2022-11-02T13:23:40.850Z,22.98
2022-11-02T13:26:41.094Z,23.19
2022-11-02T13:29:59.843Z,22.27
2022-11-02T13:33:12.589Z,22.04
2022-11-02T13:35:49.435Z,23.38
2022-11-02T13:38:55.350Z,23.19
2022-11-02T13:41:50.194Z,22.25
2022-11-02T13:44:58.025Z,21.47
2022-11-02T13:48:03.481Z,21.19
2022-11-02T13:50:36.183Z,21.20
2022-11-02T13:53:18.416Z,21.17
2022-11-02T13:55:57.962Z,20.93
2022-11-02T13:58:40.183Z,20.68
2022-11-02T14:01:12.024Z,20.74
2022-11-02T14:04:02.524Z,20.69
2022-11-02T14:06:39.158Z,20.72
2022-11-02T14:09:13.126Z,20.77
2022-11-02T14:11:53.209Z,20.68
2022-11-02T14:14:24.990Z,20.58
2022-11-02T14:16:59.647Z,20.48
2022-11-02T14:19:53.690Z,20.26
2022-11-02T14:22:27.959Z,20.19
2022-11-02T14:25:08.551Z,20.34
2022-11-02T14:27:40.845Z,20.28
2022-11-02T14:30:55.989Z,19.97
2022-11-02T14:33:56.126Z,19.72
2022-11-02T14:37:02.349Z,20.00
2022-11-02T14:40:16.826Z,19.58
2022-11-02T14:42:49.707Z,19.39
2022-11-02T14:45:57.461Z,19.66
2022-11-02T14:48:36.681Z,19.87
2022-11-02T14:51:08.628Z,19.64
2022-11-02T14:53:39.478Z,19.34
2022-11-02T14:56:16.596Z,19.02
2022-11-02T14:58:57.101Z,19.04
2022-11-02T15:01:25.945Z,19.03
2022-11-02T15:03:56.109Z,18.99
2022-11-02T15:06:30.052Z,18.67
2022-11-02T15:09:07.356Z,18.73
2022-11-02T15:11:54.754Z,18.39
2022-11-02T15:14:46.420Z,18.04
2022-11-02T15:17:38.984Z,17.94
2022-11-02T15:20:34.970Z,17.90
2022-11-02T15:26:59.328Z,17.40
2022-11-02T15:29:48.387Z,17.20
2022-11-02T15:32:30.494Z,17.37
2022-11-02T15:35:01.487Z,17.34
2022-11-02T15:37:50.410Z,17.14
2022-11-02T15:41:00.874Z,17.14
2022-11-02T15:43:48.219Z,16.95
2022-11-02T15:46:18.723Z,16.92
2022-11-02T15:49:03.290Z,16.84
2022-11-02T15:52:08.400Z,16.74
2022-11-02T15:55:17.808Z,16.62
2022-11-02T15:58:12.357Z,16.62
2022-11-02T16:00:48.586Z,16.53
2022-11-02T16:03:21.941Z,16.45
2022-11-02T16:05:54.757Z,16.41
2022-11-02T16:08:37.226Z,16.37
2022-11-02T16:11:20.933Z,16.24
2022-11-02T16:14:08.515Z,16.21
2022-11-02T16:16:48.397Z,16.15
2022-11-02T16:19:23.467Z,16.18
2022-11-02T16:21:51.589Z,16.11
2022-11-02T16:24:28.702Z,16.11
2022-11-02T16:26:57.934Z,15.97
2022-11-02T16:29:38.972Z,15.91
2022-11-02T16:32:15.566Z,15.87
2022-11-02T16:34:48.503Z,15.87
2022-11-02T16:37:28.446Z,15.83
2022-11-02T16:39:57.140Z,15.82
2022-11-02T16:42:26.558Z,15.81
2022-11-02T16:47:51.013Z,15.78
2022-11-02T16:50:22.129Z,15.69
2022-11-02T16:53:04.754Z,15.86
2022-11-02T16:55:50.217Z,15.69
2022-11-02T17:01:08.627Z,15.51
2022-11-02T17:03:39.395Z,15.65
2022-11-02T17:06:16.022Z,15.58
2022-11-02T17:08:53.585Z,15.53
2022-11-02T17:11:32.935Z,15.54
2022-11-02T17:14:03.082Z,15.52
2022-11-02T17:16:38.289Z,15.47
2022-11-02T17:19:14.640Z,15.39
2022-11-02T17:21:48.999Z,15.44
2022-11-02T17:24:38.669Z,15.53
2022-11-02T17:27:29.241Z,15.52
2022-11-02T17:30:03.200Z,15.53
2022-11-02T17:32:33.762Z,15.43
2022-11-02T17:35:09.610Z,15.34
2022-11-02T17:37:41.341Z,15.33
2022-11-02T17:40:14.552Z,15.41
2022-11-02T17:43:01.363Z,15.22
2022-11-02T17:45:40.383Z,15.30
2022-11-02T17:48:40.133Z,15.14
2022-11-02T17:51:14.800Z,15.30
2022-11-02T17:53:51.297Z,14.93
2022-11-02T17:56:24.061Z,14.95
2022-11-02T17:58:54.324Z,14.50
2022-11-02T18:01:24.764Z,14.48
2022-11-02T18:04:02.602Z,14.57
2022-11-02T18:06:30.891Z,14.25
2022-11-02T18:09:18.003Z,14.09
2022-11-02T18:11:55.090Z,14.26
2022-11-02T18:14:26.419Z,14.11
2022-11-02T18:17:02.384Z,13.88
2022-11-02T18:19:35.789Z,13.71
2022-11-02T18:22:04.546Z,13.67
2022-11-02T18:24:35.644Z,13.68
2022-11-02T18:27:06.203Z,13.81
2022-11-02T18:29:36.561Z,13.83
2022-11-02T18:32:07.338Z,13.73
2022-11-02T18:34:38.903Z,13.65
2022-11-02T18:37:12.680Z,13.59
2022-11-02T18:39:43.521Z,13.84
2022-11-02T18:42:16.351Z,13.90
2022-11-02T18:44:46.709Z,13.81
2022-11-02T18:47:17.648Z,13.68
2022-11-02T18:49:52.143Z,13.74
2022-11-02T18:52:22.398Z,13.50
2022-11-02T18:54:55.791Z,13.38
2022-11-02T18:57:36.637Z,13.51
2022-11-02T19:00:07.985Z,13.35
2022-11-02T19:02:45.035Z,13.37
2022-11-02T19:05:35.497Z,13.42
2022-11-02T19:08:21.659Z,13.00
2022-11-02T19:10:50.506Z,12.81
2022-11-02T19:13:22.070Z,12.58
2022-11-02T19:15:53.030Z,12.72
2022-11-02T19:18:21.838Z,12.65
2022-11-02T19:20:57.202Z,12.76
2022-11-02T19:23:29.247Z,12.98
2022-11-02T19:25:59.656Z,13.08
2022-11-02T19:28:38.347Z,12.98
2022-11-02T19:31:10.769Z,13.36
2022-11-02T19:33:39.266Z,13.48
2022-11-02T19:36:08.411Z,13.70
2022-11-02T19:38:48.353Z,13.70
2022-11-02T19:41:28.899Z,13.45
2022-11-02T19:44:00.849Z,13.50
2022-11-02T19:46:45.148Z,13.51
2022-11-02T19:49:18.561Z,13.75
2022-11-02T19:51:48.592Z,13.71
2022-11-02T19:54:19.603Z,13.80
2022-11-02T19:59:35.819Z,14.08
2022-11-02T20:02:14.939Z,14.57
2022-11-02T20:04:47.449Z,14.64
2022-11-02T20:07:16.710Z,14.24
2022-11-02T20:12:30.555Z,13.65
2022-11-02T20:15:01.637Z,13.64
2022-11-02T20:17:41.932Z,13.74
2022-11-02T20:20:23.052Z,13.77
2022-11-02T20:23:02.461Z,13.81
2022-11-02T20:25:33.191Z,13.78
2022-11-02T20:28:05.050Z,13.58
2022-11-02T20:30:35.392Z,13.52
2022-11-02T20:33:12.883Z,13.78
2022-11-02T20:35:43.109Z,13.97
2022-11-02T20:38:14.421Z,13.91
2022-11-02T20:40:45.393Z,13.92
2022-11-02T20:43:17.340Z,13.56
2022-11-02T20:46:01.566Z,13.39
2022-11-02T20:48:45.774Z,13.59
2022-11-02T20:51:19.479Z,13.51
2022-11-02T20:54:04.197Z,13.53
2022-11-02T20:56:38.304Z,13.63
2022-11-02T20:59:07.386Z,13.70
2022-11-02T21:01:41.243Z,13.52
2022-11-02T21:04:13.915Z,13.57
2022-11-02T21:06:51.928Z,13.60
2022-11-02T21:09:28.343Z,13.57
2022-11-02T21:12:16.016Z,13.57
2022-11-02T21:14:46.366Z,13.55
2022-11-02T21:17:15.561Z,13.49
2022-11-02T21:19:54.239Z,13.55
2022-11-02T21:22:42.576Z,13.46
2022-11-02T21:25:12.560Z,13.51
2022-11-02T21:30:25.725Z,13.62
2022-11-02T21:32:59.248Z,13.62
2022-11-02T21:35:36.570Z,13.64
2022-11-02T21:38:12.968Z,13.71
2022-11-02T21:40:46.743Z,13.45
2022-11-02T21:43:18.578Z,13.69
2022-11-02T21:45:58.813Z,13.70
2022-11-02T21:48:33.996Z,13.61
2022-11-02T21:51:09.924Z,13.51
2022-11-02T21:53:42.212Z,13.55
2022-11-02T21:56:22.377Z,13.55
2022-11-02T21:59:02.589Z,13.66
2022-11-02T22:01:50.347Z,13.56
2022-11-02T22:04:47.390Z,13.51
2022-11-02T22:07:15.363Z,13.58
2022-11-02T22:09:52.272Z,13.52
2022-11-02T22:12:41.933Z,13.27
2022-11-02T22:15:27.450Z,13.34
2022-11-02T22:20:39.525Z,13.00
2022-11-02T22:23:10.440Z,13.10
2022-11-02T22:25:38.319Z,13.27
2022-11-02T22:28:08.307Z,13.40
2022-11-02T22:30:50.386Z,13.42
2022-11-02T22:36:12.290Z,13.31
2022-11-02T22:38:58.336Z,13.35
2022-11-02T22:41:51.776Z,13.42
2022-11-02T22:44:22.673Z,13.31
2022-11-02T22:49:39.883Z,13.31
2022-11-02T22:52:08.178Z,13.10
2022-11-02T22:54:41.489Z,12.89
2022-11-02T22:57:12.167Z,13.18
2022-11-02T22:59:43.498Z,13.11
2022-11-02T23:02:11.536Z,13.22
2022-11-02T23:04:41.823Z,13.35
2022-11-02T23:07:18.136Z,13.39
2022-11-02T23:09:54.281Z,13.38
2022-11-02T23:12:23.301Z,13.43
2022-11-02T23:14:52.216Z,13.44
2022-11-02T23:17:27.790Z,13.41
2022-11-02T23:19:59.050Z,13.36
2022-11-02T23:22:44.791Z,13.30
2022-11-02T23:25:17.646Z,13.27
2022-11-02T23:28:03.977Z,13.19
2022-11-02T23:30:56.941Z,13.20
2022-11-02T23:33:34.273Z,13.07
2022-11-02T23:36:13.273Z,13.19
2022-11-02T23:39:18.113Z,13.36
2022-11-02T23:41:59.412Z,13.35
2022-11-02T23:44:30.960Z,13.29
2022-11-02T23:47:02.064Z,13.36
2022-11-02T23:49:31.656Z,13.23
2022-11-02T23:52:20.878Z,13.26
2022-11-02T23:55:06.838Z,13.23
2022-11-02T23:57:38.032Z,13.27
